M.I. Ben-Yaakov, Israel

9:09 AM IDT on September 19, 2014 (GMT +0300)
M.I. Ben-Yaakov | Change Station
CLOSE
Current Station
Airport
Location: Rosh-Pina,
Elevation: 922 ft
Nearby Weather Stations

Elev 922 ft 32.98 °N, 35.57 °E | Updated 19 minutes ago

Partly Cloudy
Partly Cloudy
77 °F
Feels Like 77 °F
N
1
Wind Variable Wind from Variable

Today
High -- | Low -- °F
--% Chance of Precip.
Yesterday
High -- | Low -- °F
Precip. -- in
6:23 AM 6:38 PM
Waning Crescent, 21% visible
Pressure 30.01 in
Visibility 6.2 miles
Clouds Few 3000 ft
Dew Point 63 °F
Humidity 61%
Rainfall 0.00 in
Snow Depth Not available.
UV 3 out of 12
Pollen Not available.
Air Quality Not available.
Flu Activity Not available.
METAR LLIB 190550Z VRB01KT 9999 FEW030 25/17 Q1016

More Conditions Fewer Conditions

Pressure 30.01 in
Visibility 6.2 miles
Clouds Few 3000 ft
Dew Point 63 °F
Humidity 61%
Rainfall 0.00 in
Snow Depth Not available.
UV 3 out of 12
Pollen Not available.
Air Quality Not available.
Flu Activity Not available.
METAR LLIB 190550Z VRB01KT 9999 FEW030 25/17 Q1016

More Conditions Fewer Conditions

10-Day Weather Forecast

Almanac

Astronomy

Sep. 19, 2014 Rise Set
Actual Time 6:23 AM IDT 6:38 PM IDT
Civil Twilight 5:58 AM IDT 7:03 PM IDT
Nautical Twilight 5:30 AM IDT 7:32 PM IDT
Astronomical Twilight 5:00 AM IDT 8:01 PM IDT
Moon 2:01 AM IDT 3:44 PM IDT
Length of Visible Light 13h 04m
Length of Day
12h 15m
Tomorrow will be 2m 0s shorter.
Waning Crescent, 21% of the Moon is Illuminated
Today
Waning Crescent
Sep 24
New
Oct 1
First Quarter
Oct 8
Full
Oct 15
Last Quarter

Yesterday's Extremes

Country Highs Country Lows

Community

WunderPhotos

Upload Photos

1,754,575 photos uploaded!

Nearby

Snow Depth

Not available.

Earthquake Activity

City Distance Mag. Time & Date
No recent earthquake activity has been reported nearby.
Minimum magnitude displayed is 2.5.

Coastal Water Temperatures

Place Temperature
No Stations Reporting

Nearby Weather Stations